INFORMACIÓN METAR y TAF
METAR FOR LFPG
ADDS - METARS form results

(2044 UTC 13 August 2022)
Data provider http://aviationweather.gov/metar/data/
 
METAR text: LFPG 132030Z 05009KT CAVOK 25/07 Q1011 NOSIG
Conditions at: LFPG (CHARLES DE GAULL, FR) observed 2030 UTC 13 August 2022
Temperature: 25.0°C (77°F)
Dewpoint: 7.0°C (45°F) [RH = 32%]
Pressure (altimeter): 29.85 inches Hg (1011.0 mb)
Winds: from the NE (50 degrees) at 10 MPH (9 knots; 4.6 m/s)
Visibility: 6 or more miles (10+ km)
Ceiling: ceiling and visibility are OK
Clouds: unknown
Weather: no significant weather observed at this time

METAR text: LFPG 132000Z 06007KT CAVOK 26/07 Q1011 NOSIG
Conditions at: LFPG (CHARLES DE GAULL, FR) observed 2000 UTC 13 August 2022
Temperature: 26.0°C (79°F)
Dewpoint: 7.0°C (45°F) [RH = 30%]
Pressure (altimeter): 29.85 inches Hg (1011.0 mb)
Winds: from the ENE (60 degrees) at 8 MPH (7 knots; 3.6 m/s)
Visibility: 6 or more miles (10+ km)
Ceiling: ceiling and visibility are OK
Clouds: unknown
Weather: no significant weather observed at this time

Forecast for: LFPG (CHARLES DE GAULL, FR)
Text: TAF LFPG 131700Z 1318/1424 11010KT CAVOK TX31/1318Z TN20/1424Z
Forecast period: 1800 UTC 13 August 2022 to 0900 UTC 14 August 2022
Forecast type: FROM: standard forecast or significant change
Winds: from the ESE (110 degrees) at 12 MPH (10 knots; 5.1 m/s)
Visibility: 6 or more miles (10+ km)
Ceiling: unknown
Clouds: missing
Weather: no significant weather forecast for this period
Text: BECMG 1409/1411 24010KT
Forecast period: 0900 UTC 14 August 2022 to 0000 UTC 15 August 2022
Forecast type: BECOMING: Conditions expected to become as follows by 1100 UTC 14 August 2022
Winds: from the WSW (240 degrees) at 12 MPH (10 knots; 5.1 m/s)
Visibility: 6 or more miles (10+ km)
Ceiling: unknown
Clouds: missing
Weather: no significant weather forecast for this period
Text: PROB30
Forecast period: 1200 to 1500 UTC 14 August 2022
Forecast type: TEMPORARY: The following changes expected for less than half the time period
Winds: from the WSW (240 degrees) at 17 MPH (15 knots; 7.7 m/s)
gusting to 29 MPH (25 knots; 12.9 m/s)
Visibility: missing
Ceiling: unknown
Clouds: missing
Weather: no significant weather forecast for this period
Text: TEMPO 1412/1415 24015G25KT
Forecast period: 1300 UTC 14 August 2022 to 0000 UTC 15 August 2022
Forecast type: TEMPORARY: The following changes expected for less than half the time period
Visibility: 2.49 miles (4.01 km)
Ceiling: 4500 feet AGL
Clouds: broken clouds at 4500 feet AGL
Weather: TSRA  (rain associated with thunderstorm(s))
Text: PROB40
Forecast period: 1300 to 1800 UTC 14 August 2022
Forecast type: TEMPORARY: The following changes expected for less than half the time period
Visibility: 1.55 miles (2.49 km)
Ceiling: unknown
Clouds: missing
Weather: TSRA TSGR  (rain associated with thunderstorm(s), hail associated with thunderstorm(s))

 MAPA DE AEROPUERTO

 INFORMACIÓN DE PISTA